createdAt,value
2018-08-22T00:00:05.712Z,101396.37
2018-08-22T00:02:34.187Z,101389.40
2018-08-22T00:05:02.333Z,101389.54
2018-08-22T00:07:30.623Z,101388.70
2018-08-22T00:09:58.975Z,101389.69
2018-08-22T00:12:27.679Z,101392.47
2018-08-22T00:14:55.824Z,101394.27
2018-08-22T00:17:24.279Z,101389.13
2018-08-22T00:19:52.424Z,101390.70
2018-08-22T00:22:20.653Z,101391.45
2018-08-22T00:24:49.001Z,101395.56
2018-08-22T00:27:17.631Z,101389.91
2018-08-22T00:29:45.925Z,101390.76
2018-08-22T00:32:14.703Z,101386.42
2018-08-22T00:34:42.849Z,101383.78
2018-08-22T00:37:11.274Z,101386.08
2018-08-22T00:39:39.536Z,101385.72
2018-08-22T00:42:07.684Z,101379.73
2018-08-22T00:44:35.940Z,101374.58
2018-08-22T00:47:05.091Z,101374.35
2018-08-22T00:49:33.243Z,101375.34
2018-08-22T00:52:01.615Z,101375.34
2018-08-22T00:54:29.980Z,101377.28
2018-08-22T00:56:58.391Z,101373.84
2018-08-22T00:59:26.773Z,101370.13
2018-08-22T01:01:55.132Z,101371.70
2018-08-22T01:04:30.022Z,101365.37
2018-08-22T01:06:58.360Z,101366.70
2018-08-22T01:09:26.482Z,101366.19
2018-08-22T01:11:54.915Z,101365.85
2018-08-22T01:14:23.329Z,101365.01
2018-08-22T01:16:57.956Z,101358.06
2018-08-22T01:19:26.207Z,101360.34
2018-08-22T01:21:54.910Z,101358.22
2018-08-22T01:24:24.013Z,101357.52
2018-08-22T01:26:52.988Z,101355.16
2018-08-22T01:29:21.459Z,101356.59
2018-08-22T01:31:49.989Z,101356.73
2018-08-22T01:34:18.460Z,101354.70
2018-08-22T01:36:46.596Z,101356.30
2018-08-22T01:39:15.023Z,101354.61
2018-08-22T01:41:43.357Z,101352.24
2018-08-22T01:44:11.529Z,101351.31
2018-08-22T01:46:39.671Z,101348.58
2018-08-22T01:49:08.336Z,101349.19
2018-08-22T01:51:36.477Z,101345.98
2018-08-22T01:54:05.409Z,101347.55
2018-08-22T01:56:33.957Z,101349.34
2018-08-22T01:59:02.430Z,101347.11
2018-08-22T02:01:30.567Z,101343.62
2018-08-22T02:03:58.709Z,101341.83
2018-08-22T02:06:27.052Z,101339.44
2018-08-22T02:08:55.551Z,101335.75
2018-08-22T02:11:23.744Z,101341.27
2018-08-22T02:13:52.267Z,101338.77
2018-08-22T02:16:20.448Z,101336.27
2018-08-22T02:18:48.580Z,101331.59
2018-08-22T02:21:17.185Z,101330.52
2018-08-22T02:23:45.316Z,101327.17
2018-08-22T02:26:13.445Z,101327.65
2018-08-22T02:28:41.584Z,101332.59
2018-08-22T02:31:10.001Z,101324.58
2018-08-22T02:33:38.136Z,101322.31
2018-08-22T02:36:06.553Z,101325.42
2018-08-22T02:38:34.692Z,101324.61
2018-08-22T02:41:02.893Z,101327.02
2018-08-22T02:43:31.053Z,101315.75
2018-08-22T02:45:59.213Z,101311.93
2018-08-22T02:48:27.353Z,101317.78
2018-08-22T02:50:55.524Z,101316.09
2018-08-22T02:53:24.150Z,101311.90
2018-08-22T02:55:52.292Z,101313.02
2018-08-22T02:58:20.537Z,101316.61
2018-08-22T03:00:49.109Z,101315.05
2018-08-22T03:03:17.543Z,101307.13
2018-08-22T03:05:45.672Z,101312.92
2018-08-22T03:08:14.109Z,101311.70
2018-08-22T03:10:42.453Z,101316.64
2018-08-22T03:13:10.882Z,101316.27
2018-08-22T03:15:39.041Z,101310.99
2018-08-22T03:18:07.333Z,101312.11
2018-08-22T03:20:35.475Z,101308.63
2018-08-22T03:23:03.802Z,101309.58
2018-08-22T03:25:31.937Z,101306.83
2018-08-22T03:28:00.081Z,101310.59
2018-08-22T03:30:28.211Z,101307.84
2018-08-22T03:32:56.533Z,101296.11
2018-08-22T03:35:25.013Z,101303.08
2018-08-22T03:37:53.154Z,101301.52
2018-08-22T03:40:21.864Z,101303.34
2018-08-22T03:42:50.413Z,101300.84
2018-08-22T03:45:18.550Z,101298.81
2018-08-22T03:47:46.705Z,101301.92
2018-08-22T03:50:15.105Z,101298.09
2018-08-22T03:52:43.428Z,101293.77
2018-08-22T03:55:11.561Z,101302.66
2018-08-22T03:57:40.926Z,101300.16
2018-08-22T04:00:09.822Z,101292.34
2018-08-22T04:02:37.968Z,101291.42
2018-08-22T04:05:06.721Z,101285.06
2018-08-22T04:07:34.884Z,101285.54
2018-08-22T04:10:03.377Z,101288.69
2018-08-22T04:12:31.518Z,101286.28
2018-08-22T04:15:00.143Z,101287.36
2018-08-22T04:17:38.613Z,101285.33
2018-08-22T04:20:08.697Z,101284.61
2018-08-22T04:22:38.576Z,101290.75
2018-08-22T04:25:08.089Z,101291.97
2018-08-22T04:27:37.246Z,101292.09
2018-08-22T04:30:06.754Z,101292.20
2018-08-22T04:32:35.236Z,101293.06
2018-08-22T04:35:03.368Z,101291.16
2018-08-22T04:37:31.500Z,101289.00
2018-08-22T04:40:00.157Z,101293.05
2018-08-22T04:42:28.294Z,101288.12
2018-08-22T04:44:56.850Z,101283.20
2018-08-22T04:47:25.197Z,101284.90
2018-08-22T04:49:53.905Z,101282.60
2018-08-22T04:52:22.377Z,101282.73
2018-08-22T04:54:50.520Z,101286.95
2018-08-22T04:57:19.335Z,101287.42
2018-08-22T04:59:47.497Z,101283.09
2018-08-22T05:02:16.009Z,101279.52
2018-08-22T05:04:44.145Z,101282.02
2018-08-22T05:07:12.573Z,101282.02
2018-08-22T05:09:41.041Z,101278.91
2018-08-22T05:12:09.280Z,101284.19
2018-08-22T05:14:37.440Z,101275.30
2018-08-22T05:17:06.052Z,101290.30
2018-08-22T05:19:34.193Z,101287.77
2018-08-22T05:22:02.354Z,101283.81
2018-08-22T05:24:30.510Z,101287.66
2018-08-22T05:26:59.022Z,101290.17
2018-08-22T05:29:27.172Z,101286.80
2018-08-22T05:31:58.058Z,101293.06
2018-08-22T05:34:26.345Z,101286.81
2018-08-22T05:36:54.509Z,101285.13
2018-08-22T05:39:22.945Z,101276.99
2018-08-22T05:41:51.574Z,101282.84
2018-08-22T05:44:19.718Z,101285.93
2018-08-22T05:46:48.273Z,101290.37
2018-08-22T05:49:16.713Z,101291.90
2018-08-22T05:51:44.991Z,101293.06
2018-08-22T05:54:13.435Z,101292.79
2018-08-22T05:56:41.909Z,101288.20
2018-08-22T05:59:10.471Z,101287.22
2018-08-22T06:01:38.637Z,101286.23
2018-08-22T06:04:07.430Z,101289.68
2018-08-22T06:06:35.582Z,101286.02
2018-08-22T06:09:04.437Z,101279.75
2018-08-22T06:11:33.034Z,101272.20
2018-08-22T06:14:01.206Z,101274.04
2018-08-22T06:16:29.360Z,101280.34
2018-08-22T06:18:57.885Z,101279.69
2018-08-22T06:21:26.547Z,101275.20
2018-08-22T06:23:55.267Z,101278.16
2018-08-22T06:26:23.857Z,101283.62
2018-08-22T06:28:52.005Z,101274.55
2018-08-22T06:31:20.489Z,101270.14
2018-08-22T06:33:48.688Z,101265.94
2018-08-22T06:36:16.862Z,101266.92
2018-08-22T06:38:45.421Z,101268.19
2018-08-22T06:41:13.729Z,101266.47
2018-08-22T06:43:41.894Z,101268.56
2018-08-22T06:46:10.392Z,101267.34
2018-08-22T06:48:38.574Z,101268.57
2018-08-22T06:51:06.899Z,101269.23
2018-08-22T06:53:35.412Z,101267.64
2018-08-22T06:56:03.564Z,101266.77
2018-08-22T06:58:32.041Z,101259.58
2018-08-22T07:01:00.240Z,101263.50
2018-08-22T07:03:28.385Z,101262.62
2018-08-22T07:05:56.692Z,101261.25
2018-08-22T07:08:25.054Z,101256.35
2018-08-22T07:10:53.676Z,101257.58
2018-08-22T07:13:21.830Z,101255.29
2018-08-22T07:15:50.621Z,101257.09
2018-08-22T07:18:19.409Z,101259.64
2018-08-22T07:20:47.912Z,101259.26
2018-08-22T07:23:17.271Z,101260.69
2018-08-22T07:25:45.557Z,101261.15
2018-08-22T07:28:13.707Z,101260.53
2018-08-22T07:30:41.857Z,101257.56
2018-08-22T07:33:10.373Z,101259.09
2018-08-22T07:35:38.781Z,101262.95
2018-08-22T07:38:07.468Z,101260.09
2018-08-22T07:40:36.213Z,101265.74
2018-08-22T07:43:06.169Z,101265.72
2018-08-22T07:45:34.312Z,101266.30
2018-08-22T07:48:02.821Z,101264.33
2018-08-22T07:50:31.762Z,101268.76
2018-08-22T07:53:03.861Z,101274.09
2018-08-22T07:55:36.293Z,101277.70
2018-08-22T07:58:06.683Z,101270.16
2018-08-22T08:00:35.018Z,101275.24
2018-08-22T08:03:03.620Z,101276.08
2018-08-22T08:05:32.313Z,101271.28
2018-08-22T08:08:00.637Z,101271.69
2018-08-22T08:10:33.894Z,101268.42
2018-08-22T08:13:03.364Z,101274.02
2018-08-22T08:15:31.521Z,101269.05
2018-08-22T08:18:00.059Z,101271.80
2018-08-22T08:20:28.325Z,101274.08
2018-08-22T08:22:56.473Z,101274.66
2018-08-22T08:25:25.560Z,101275.58
2018-08-22T08:27:54.110Z,101282.16
2018-08-22T08:30:22.437Z,101278.45
2018-08-22T08:32:50.597Z,101277.63
2018-08-22T08:35:19.005Z,101276.03
2018-08-22T08:37:47.159Z,101275.03
2018-08-22T08:40:15.512Z,101269.52
2018-08-22T08:42:43.693Z,101274.39
2018-08-22T08:45:12.526Z,101269.78
2018-08-22T08:47:40.768Z,101264.53
2018-08-22T08:50:09.911Z,101266.47
2018-08-22T08:52:38.229Z,101261.95
2018-08-22T08:55:06.519Z,101257.75
2018-08-22T08:57:34.876Z,101260.91
2018-08-22T09:00:03.610Z,101257.93
2018-08-22T09:02:31.962Z,101256.34
2018-08-22T09:05:00.669Z,101259.44
2018-08-22T09:07:28.981Z,101256.44
2018-08-22T09:09:57.495Z,101249.66
2018-08-22T09:12:25.797Z,101246.75
2018-08-22T09:17:23.034Z,101243.84
2018-08-22T09:19:51.333Z,101245.59
2018-08-22T09:22:19.580Z,101239.53
2018-08-22T09:24:48.156Z,101236.09
2018-08-22T09:27:16.499Z,101236.55
2018-08-22T09:29:44.655Z,101234.50
2018-08-22T09:32:12.814Z,101236.75
2018-08-22T09:34:41.077Z,101233.94
2018-08-22T09:37:09.529Z,101238.78
2018-08-22T09:39:37.729Z,101229.58
2018-08-22T09:42:06.486Z,101232.59
2018-08-22T09:44:34.797Z,101226.94
2018-08-22T09:47:02.959Z,101229.28
2018-08-22T09:49:31.210Z,101232.75
2018-08-22T09:51:59.548Z,101233.04
2018-08-22T09:54:27.739Z,101228.94
2018-08-22T09:56:56.189Z,101229.55
2018-08-22T09:59:24.616Z,101224.50
2018-08-22T10:01:52.784Z,101218.13
2018-08-22T10:04:21.242Z,101223.86
2018-08-22T10:06:50.251Z,101227.03
2018-08-22T10:09:24.318Z,101223.86
2018-08-22T10:11:52.469Z,101215.47
2018-08-22T10:14:20.815Z,101210.27
2018-08-22T10:16:49.384Z,101214.78
2018-08-22T10:19:17.539Z,101207.21
2018-08-22T10:21:46.586Z,101210.28
2018-08-22T10:24:15.513Z,101205.63
2018-08-22T10:26:43.667Z,101208.11
2018-08-22T10:29:11.806Z,101204.34
2018-08-22T10:31:40.343Z,101198.96
2018-08-22T10:34:09.636Z,101194.72
2018-08-22T10:36:37.777Z,101187.34
2018-08-22T10:39:08.621Z,101191.16
2018-08-22T10:41:37.150Z,101185.04
2018-08-22T10:44:06.111Z,101191.08
2018-08-22T10:46:34.615Z,101189.66
2018-08-22T10:49:03.281Z,101184.62
2018-08-22T10:51:31.677Z,101185.91
2018-08-22T10:54:00.124Z,101184.98
2018-08-22T10:56:28.804Z,101181.13
2018-08-22T10:58:56.962Z,101187.77
2018-08-22T11:01:25.956Z,101184.06
2018-08-22T11:03:54.189Z,101187.88
2018-08-22T11:06:22.933Z,101185.50
2018-08-22T11:08:51.601Z,101189.70
2018-08-22T11:11:20.364Z,101185.50
2018-08-22T11:13:48.533Z,101184.59
2018-08-22T11:16:16.703Z,101185.34
2018-08-22T11:18:45.679Z,101183.34
2018-08-22T11:21:25.148Z,101179.17
2018-08-22T11:24:04.716Z,101180.09
2018-08-22T11:26:44.499Z,101174.34
2018-08-22T11:29:24.321Z,101171.50
2018-08-22T11:32:03.873Z,101177.64
2018-08-22T11:34:42.380Z,101169.96
2018-08-22T11:37:12.401Z,101173.88
2018-08-22T11:39:42.308Z,101173.61
2018-08-22T11:42:10.505Z,101167.78
2018-08-22T11:44:39.377Z,101164.36
2018-08-22T11:47:07.801Z,101159.20
2018-08-22T11:49:36.053Z,101155.05
2018-08-22T11:52:05.921Z,101157.12
2018-08-22T11:54:34.322Z,101157.44
2018-08-22T11:57:03.308Z,101156.05
2018-08-22T11:59:32.141Z,101149.88
2018-08-22T12:02:00.686Z,101151.51
2018-08-22T12:04:29.333Z,101152.58
2018-08-22T12:06:57.837Z,101150.55
2018-08-22T12:09:26.630Z,101149.73
2018-08-22T12:11:55.476Z,101149.90
2018-08-22T12:14:23.990Z,101147.14
2018-08-22T12:16:52.283Z,101147.69
2018-08-22T12:19:21.264Z,101148.52
2018-08-22T12:21:49.784Z,101145.06
2018-08-22T12:24:18.970Z,101144.85
2018-08-22T12:26:47.110Z,101140.20
2018-08-22T12:29:15.603Z,101148.95
2018-08-22T12:31:44.113Z,101137.05
2018-08-22T12:34:12.245Z,101133.36
2018-08-22T12:36:40.400Z,101132.80
2018-08-22T12:39:09.533Z,101127.84
2018-08-22T12:41:38.052Z,101125.28
2018-08-22T12:44:06.818Z,101124.42
2018-08-22T12:46:34.987Z,101127.25
2018-08-22T12:49:04.236Z,101125.09
2018-08-22T12:51:32.565Z,101117.88
2018-08-22T12:54:01.403Z,101115.26
2018-08-22T12:56:29.572Z,101119.03
2018-08-22T12:58:57.744Z,101110.09
2018-08-22T13:01:26.058Z,101111.03
2018-08-22T13:03:54.215Z,101105.52
2018-08-22T13:06:22.744Z,101103.98
2018-08-22T13:08:51.253Z,101108.63
2018-08-22T13:11:20.125Z,101102.87
2018-08-22T13:13:48.968Z,101101.75
2018-08-22T13:16:17.469Z,101100.38
2018-08-22T13:18:45.621Z,101103.15
2018-08-22T13:21:13.921Z,101100.28
2018-08-22T13:23:42.073Z,101098.45
2018-08-22T13:26:10.829Z,101103.34
2018-08-22T13:28:39.004Z,101099.85
2018-08-22T13:31:07.445Z,101102.58
2018-08-22T13:33:35.758Z,101096.22
2018-08-22T13:36:05.501Z,101100.30
2018-08-22T13:38:34.142Z,101098.89
2018-08-22T13:41:02.641Z,101099.27
2018-08-22T13:43:30.811Z,101089.59
2018-08-22T13:45:59.701Z,101089.70
2018-08-22T13:48:28.160Z,101089.01
2018-08-22T13:50:56.610Z,101083.91
2018-08-22T13:53:25.804Z,101083.60
2018-08-22T13:55:54.215Z,101090.47
2018-08-22T13:58:22.879Z,101090.24
2018-08-22T14:00:51.037Z,101082.84
2018-08-22T14:03:19.312Z,101082.13
2018-08-22T14:05:48.857Z,101081.26
2018-08-22T14:08:17.298Z,101077.75
2018-08-22T14:10:46.150Z,101080.83
2018-08-22T14:13:14.765Z,101076.87
2018-08-22T14:15:43.277Z,101080.22
2018-08-22T14:18:11.860Z,101075.42
2018-08-22T14:20:40.415Z,101084.19
2018-08-22T14:23:09.158Z,101078.95
2018-08-22T14:25:37.705Z,101081.44
2018-08-22T14:28:06.735Z,101071.31
2018-08-22T14:30:35.501Z,101072.52
2018-08-22T14:33:03.662Z,101071.09
2018-08-22T14:35:31.821Z,101074.09
2018-08-22T14:38:00.007Z,101076.80
2018-08-22T14:40:28.673Z,101072.00
2018-08-22T14:42:56.905Z,101069.13
2018-08-22T14:45:25.177Z,101071.81
2018-08-22T14:47:54.250Z,101073.59
2018-08-22T14:50:22.710Z,101068.80
2018-08-22T14:52:50.872Z,101070.66
2018-08-22T14:55:29.360Z,101062.20
2018-08-22T14:57:57.536Z,101061.91
2018-08-22T15:00:26.029Z,101063.48
2018-08-22T15:02:54.648Z,101063.69
2018-08-22T15:05:23.159Z,101063.31
2018-08-22T15:07:51.801Z,101061.52
2018-08-22T15:10:20.566Z,101068.39
2018-08-22T15:12:48.920Z,101066.84
2018-08-22T15:15:17.530Z,101068.28
2018-08-22T15:17:46.002Z,101063.86
2018-08-22T15:20:14.468Z,101068.16
2018-08-22T15:22:43.275Z,101073.75
2018-08-22T15:25:11.893Z,101072.52
2018-08-22T15:27:40.050Z,101065.87
2018-08-22T15:30:09.261Z,101066.93
2018-08-22T15:32:38.015Z,101064.97
2018-08-22T15:35:07.167Z,101060.20
2018-08-22T15:37:35.573Z,101058.98
2018-08-22T15:40:05.520Z,101057.20
2018-08-22T15:42:34.646Z,101055.62
2018-08-22T15:45:03.433Z,101057.20
2018-08-22T15:47:31.584Z,101051.05
2018-08-22T15:50:00.280Z,101054.63
2018-08-22T15:52:28.806Z,101051.65
2018-08-22T15:55:07.613Z,101049.98
2018-08-22T15:57:51.110Z,101046.53
2018-08-22T16:00:36.250Z,101048.66
2018-08-22T16:03:06.686Z,101035.94
2018-08-22T16:05:36.729Z,101032.52
2018-08-22T16:08:07.071Z,101034.79
2018-08-22T16:10:35.645Z,101037.27
2018-08-22T16:13:04.008Z,101035.78
2018-08-22T16:15:34.777Z,101038.27
2018-08-22T16:18:05.663Z,101033.02
2018-08-22T16:20:40.705Z,101035.22
2018-08-22T16:23:09.610Z,101030.05
2018-08-22T16:25:44.149Z,101031.62
2018-08-22T16:28:12.981Z,101029.34
2018-08-22T16:30:41.441Z,101031.12
2018-08-22T16:33:10.221Z,101030.45
2018-08-22T16:35:39.086Z,101033.56
2018-08-22T16:38:10.229Z,101030.48
2018-08-22T16:40:39.900Z,101026.06
2018-08-22T16:43:08.428Z,101028.14
2018-08-22T16:45:43.170Z,101027.45
2018-08-22T16:48:12.748Z,101030.42
2018-08-22T16:50:41.272Z,101024.77
2018-08-22T16:53:09.581Z,101020.48
2018-08-22T16:55:37.729Z,101021.94
2018-08-22T16:58:06.712Z,101018.12
2018-08-22T17:00:45.638Z,101019.69
2018-08-22T17:03:13.784Z,101017.03
2018-08-22T17:05:42.953Z,101020.65
2018-08-22T17:08:11.597Z,101021.05
2018-08-22T17:10:53.657Z,101025.08
2018-08-22T17:13:28.396Z,101023.03
2018-08-22T17:15:57.595Z,101018.75
2018-08-22T17:18:26.982Z,101014.41
2018-08-22T17:20:55.521Z,101015.74
2018-08-22T17:23:24.214Z,101018.85
2018-08-22T17:25:53.068Z,101022.03
2018-08-22T17:28:28.579Z,101016.97
2018-08-22T17:30:57.278Z,101019.96
2018-08-22T17:33:31.820Z,101018.81
2018-08-22T17:36:00.084Z,101013.53
2018-08-22T17:38:28.306Z,101017.03
2018-08-22T17:40:56.464Z,101017.42
2018-08-22T17:43:24.846Z,101015.52
2018-08-22T17:45:53.081Z,101011.55
2018-08-22T17:48:22.140Z,101015.54
2018-08-22T17:50:50.749Z,101019.44
2018-08-22T17:53:18.955Z,101016.01
2018-08-22T17:55:49.205Z,101019.48
2018-08-22T17:58:17.688Z,101017.17
2018-08-22T18:00:45.845Z,101020.40
2018-08-22T18:03:14.178Z,101022.67
2018-08-22T18:05:42.894Z,101019.48
2018-08-22T18:08:11.698Z,101015.63
2018-08-22T18:10:40.498Z,101022.48
2018-08-22T18:13:10.463Z,101020.45
2018-08-22T18:15:38.858Z,101027.37
2018-08-22T18:18:08.233Z,101027.45
2018-08-22T18:20:38.732Z,101025.47
2018-08-22T18:23:07.625Z,101027.22
2018-08-22T18:25:40.491Z,101036.31
2018-08-22T18:28:09.796Z,101036.21
2018-08-22T18:30:37.956Z,101039.22
2018-08-22T18:33:06.444Z,101040.68
2018-08-22T18:35:34.698Z,101039.91
2018-08-22T18:38:02.876Z,101043.84
2018-08-22T18:40:31.429Z,101048.58
2018-08-22T18:43:01.828Z,101053.20
2018-08-22T18:45:30.621Z,101054.16
2018-08-22T18:48:16.038Z,101060.00
2018-08-22T18:50:45.733Z,101062.58
2018-08-22T18:53:15.587Z,101062.93
2018-08-22T18:55:44.201Z,101060.42
2018-08-22T18:58:12.653Z,101066.45
2018-08-22T19:00:41.170Z,101063.03
2018-08-22T19:03:09.332Z,101063.08
2018-08-22T19:05:38.201Z,101064.28
2018-08-22T19:08:10.416Z,101068.53
2018-08-22T19:10:40.824Z,101070.11
2018-08-22T19:13:11.856Z,101074.39
2018-08-22T19:15:40.293Z,101073.44
2018-08-22T19:18:09.764Z,101076.15
2018-08-22T19:20:38.744Z,101077.37
2018-08-22T19:23:07.477Z,101075.23
2018-08-22T19:25:35.660Z,101077.86
2018-08-22T19:28:06.053Z,101084.77
2018-08-22T19:30:36.713Z,101089.33
2018-08-22T19:33:09.916Z,101087.38
2018-08-22T19:35:38.770Z,101091.22
2018-08-22T19:38:07.632Z,101084.20
2018-08-22T19:40:36.817Z,101078.91
2018-08-22T19:43:06.625Z,101089.80
2018-08-22T19:45:35.736Z,101090.84
2018-08-22T19:48:03.893Z,101090.53
2018-08-22T19:50:32.388Z,101087.73
2018-08-22T19:53:00.563Z,101088.44
2018-08-22T19:55:28.977Z,101091.47
2018-08-22T19:57:57.825Z,101093.35
2018-08-22T20:00:26.364Z,101091.88
2018-08-22T20:02:55.457Z,101093.90
2018-08-22T20:05:24.571Z,101092.59
2018-08-22T20:07:52.741Z,101087.30
2018-08-22T20:10:23.890Z,101095.45
2018-08-22T20:12:54.888Z,101091.47
2018-08-22T20:15:23.441Z,101092.81
2018-08-22T20:17:54.767Z,101091.18
2018-08-22T20:20:23.270Z,101100.03
2018-08-22T20:22:53.217Z,101100.85
2018-08-22T20:25:22.356Z,101094.58
2018-08-22T20:27:50.530Z,101097.93
2018-08-22T20:30:20.356Z,101096.79
2018-08-22T20:32:58.585Z,101101.62
2018-08-22T20:35:35.928Z,101104.29
2018-08-22T20:38:06.552Z,101103.45
2018-08-22T20:40:35.360Z,101103.47
2018-08-22T20:43:03.544Z,101102.28
2018-08-22T20:45:36.521Z,101106.28
2018-08-22T20:48:08.661Z,101103.98
2018-08-22T20:50:38.966Z,101103.98
2018-08-22T20:53:09.049Z,101099.50
2018-08-22T20:55:37.263Z,101101.50
2018-08-22T20:58:06.262Z,101102.66
2018-08-22T21:00:35.746Z,101109.32
2018-08-22T21:03:04.323Z,101107.50
2018-08-22T21:05:32.583Z,101110.83
2018-08-22T21:08:00.899Z,101095.84
2018-08-22T21:10:29.298Z,101106.31
2018-08-22T21:12:57.685Z,101102.02
2018-08-22T21:15:26.395Z,101104.50
2018-08-22T21:18:01.243Z,101104.18
2018-08-22T21:20:29.401Z,101105.66
2018-08-22T21:22:58.115Z,101105.16
2018-08-22T21:25:26.312Z,101109.11
2018-08-22T21:27:54.987Z,101108.12
2018-08-22T21:30:23.704Z,101115.91
2018-08-22T21:32:52.688Z,101114.93
2018-08-22T21:35:25.946Z,101113.91
2018-08-22T21:37:58.964Z,101112.91
2018-08-22T21:40:27.550Z,101106.39
2018-08-22T21:42:55.717Z,101102.90
2018-08-22T21:45:24.440Z,101104.86
2018-08-22T21:48:08.142Z,101104.51
2018-08-22T21:50:36.302Z,101105.50
2018-08-22T21:53:05.375Z,101104.25
2018-08-22T21:55:42.248Z,101104.57
2018-08-22T21:58:11.872Z,101102.05
2018-08-22T22:00:40.025Z,101108.65
2018-08-22T22:03:10.296Z,101105.62
2018-08-22T22:05:45.362Z,101111.75
2018-08-22T22:08:13.913Z,101102.73
2018-08-22T22:10:42.754Z,101107.72
2018-08-22T22:13:11.989Z,101111.33
2018-08-22T22:15:43.582Z,101110.98
2018-08-22T22:18:12.071Z,101112.45
2018-08-22T22:20:40.750Z,101106.22
2018-08-22T22:23:09.317Z,101113.89
2018-08-22T22:25:37.608Z,101110.08
2018-08-22T22:28:06.275Z,101107.88
2018-08-22T22:30:34.956Z,101106.52
2018-08-22T22:33:03.284Z,101112.02
2018-08-22T22:35:36.804Z,101106.55
2018-08-22T22:38:08.702Z,101096.91
2018-08-22T22:40:37.507Z,101099.86
2018-08-22T22:43:10.557Z,101103.00
2018-08-22T22:45:38.719Z,101102.64
2018-08-22T22:48:07.525Z,101104.45
2018-08-22T22:50:36.183Z,101102.97
2018-08-22T22:53:06.257Z,101105.23
2018-08-22T22:55:34.418Z,101103.19
2018-08-22T22:58:03.640Z,101101.47
2018-08-22T23:00:32.329Z,101103.44
2018-08-22T23:03:07.116Z,101104.41
2018-08-22T23:05:35.292Z,101099.03
2018-08-22T23:08:03.693Z,101099.03
2018-08-22T23:10:32.178Z,101102.68
2018-08-22T23:13:00.697Z,101100.67
2018-08-22T23:15:30.119Z,101102.45
2018-08-22T23:17:59.405Z,101109.56
2018-08-22T23:20:36.634Z,101102.64
2018-08-22T23:23:22.084Z,101098.63
2018-08-22T23:25:50.554Z,101099.27
2018-08-22T23:28:19.034Z,101096.38
2018-08-22T23:30:47.836Z,101093.86
2018-08-22T23:33:16.226Z,101090.97
2018-08-22T23:35:44.705Z,101090.48
2018-08-22T23:38:18.656Z,101091.41
2018-08-22T23:40:48.289Z,101086.11
2018-08-22T23:43:16.817Z,101086.75
2018-08-22T23:45:57.616Z,101088.39
2018-08-22T23:48:31.385Z,101090.99
2018-08-22T23:51:01.402Z,101088.30
2018-08-22T23:53:37.088Z,101082.44
2018-08-22T23:56:16.065Z,101081.31
2018-08-22T23:58:45.657Z,101075.17
